createdAt,value
2023-01-10T00:01:47.005Z,-11.61
2023-01-10T00:04:20.849Z,-11.63
2023-01-10T00:06:55.672Z,-11.63
2023-01-10T00:09:31.444Z,-11.63
2023-01-10T00:12:23.711Z,-11.63
2023-01-10T00:14:57.521Z,-11.65
2023-01-10T00:17:31.514Z,-11.66
2023-01-10T00:20:05.702Z,-11.68
2023-01-10T00:22:40.041Z,-11.69
2023-01-10T00:25:14.396Z,-11.72
2023-01-10T00:27:53.352Z,-11.73
2023-01-10T00:30:29.247Z,-11.75
2023-01-10T00:33:04.443Z,-11.76
2023-01-10T00:35:38.587Z,-11.77
2023-01-10T00:38:13.438Z,-11.78
2023-01-10T00:40:48.007Z,-11.80
2023-01-10T00:43:39.374Z,-11.80
2023-01-10T00:46:13.286Z,-11.83
2023-01-10T00:48:47.604Z,-11.84
2023-01-10T00:51:21.760Z,-11.87
2023-01-10T00:53:56.790Z,-11.86
2023-01-10T00:56:30.736Z,-11.85
2023-01-10T00:59:04.908Z,-11.85
2023-01-10T01:01:40.653Z,-11.86
2023-01-10T01:04:14.833Z,-11.86
2023-01-10T01:06:49.980Z,-11.87
2023-01-10T01:09:24.185Z,-11.88
2023-01-10T01:11:58.020Z,-11.89
2023-01-10T01:14:32.284Z,-11.89
2023-01-10T01:17:06.439Z,-11.90
2023-01-10T01:19:40.681Z,-11.90
2023-01-10T01:22:15.848Z,-11.91
2023-01-10T01:24:49.933Z,-11.92
2023-01-10T01:27:23.559Z,-11.92
2023-01-10T01:29:57.508Z,-11.93
2023-01-10T01:32:31.434Z,-11.93
2023-01-10T01:35:08.009Z,-11.93
2023-01-10T01:37:43.071Z,-11.92
2023-01-10T01:40:19.852Z,-11.91
2023-01-10T01:42:56.137Z,-11.90
2023-01-10T01:45:36.720Z,-11.91
2023-01-10T01:48:40.136Z,-11.90
2023-01-10T01:51:20.955Z,-11.89
2023-01-10T01:54:06.221Z,-11.87
2023-01-10T01:56:52.321Z,-11.84
2023-01-10T01:59:34.093Z,-11.84
2023-01-10T02:02:13.097Z,-11.83
2023-01-10T02:04:51.651Z,-11.79
2023-01-10T02:07:32.587Z,-11.77
2023-01-10T02:10:40.853Z,-11.76
2023-01-10T02:13:17.539Z,-11.76
2023-01-10T02:15:52.281Z,-11.75
2023-01-10T02:18:26.664Z,-11.74
2023-01-10T02:21:25.810Z,-11.73
2023-01-10T02:24:22.576Z,-11.70
2023-01-10T02:27:15.698Z,-11.69
2023-01-10T02:30:24.952Z,-11.69
2023-01-10T02:33:05.342Z,-11.68
2023-01-10T02:35:57.101Z,-11.68
2023-01-10T02:38:50.594Z,-11.67
2023-01-10T02:41:56.277Z,-11.65
2023-01-10T02:44:43.941Z,-11.65
2023-01-10T02:47:18.084Z,-11.63
2023-01-10T02:49:53.739Z,-11.61
2023-01-10T02:52:31.945Z,-11.61
2023-01-10T02:55:06.671Z,-11.60
2023-01-10T02:58:14.038Z,-11.61
2023-01-10T03:01:19.358Z,-11.60
2023-01-10T03:04:15.916Z,-11.59
2023-01-10T03:07:00.001Z,-11.58
2023-01-10T03:10:09.101Z,-11.58
2023-01-10T03:12:55.785Z,-11.58
2023-01-10T03:15:33.652Z,-11.57
2023-01-10T03:18:15.263Z,-11.57
2023-01-10T03:20:50.093Z,-11.56
2023-01-10T03:23:25.178Z,-11.55
2023-01-10T03:26:00.070Z,-11.53
2023-01-10T03:28:46.870Z,-11.52
2023-01-10T03:31:31.844Z,-11.52
2023-01-10T03:34:06.218Z,-11.51
2023-01-10T03:37:02.754Z,-11.52
2023-01-10T03:39:46.953Z,-11.52
2023-01-10T03:42:36.723Z,-11.52
2023-01-10T03:45:13.871Z,-11.53
2023-01-10T03:47:50.047Z,-11.52
2023-01-10T03:50:26.373Z,-11.53
2023-01-10T03:53:01.404Z,-11.54
2023-01-10T03:55:37.563Z,-11.54
2023-01-10T03:58:11.585Z,-11.56
2023-01-10T04:00:45.300Z,-11.58
2023-01-10T04:03:20.396Z,-11.59
2023-01-10T04:05:54.081Z,-11.61
2023-01-10T04:08:27.083Z,-11.63
2023-01-10T04:11:01.350Z,-11.65
2023-01-10T04:13:35.825Z,-11.68
2023-01-10T04:16:09.989Z,-11.69
2023-01-10T04:18:43.806Z,-11.72
2023-01-10T04:21:17.709Z,-11.73
2023-01-10T04:23:50.512Z,-11.75
2023-01-10T04:26:25.958Z,-11.74
2023-01-10T04:28:59.755Z,-11.76
2023-01-10T04:31:33.959Z,-11.78
2023-01-10T04:34:09.936Z,-11.78
2023-01-10T04:36:45.658Z,-11.77
2023-01-10T04:39:19.948Z,-11.78
2023-01-10T04:41:53.630Z,-11.76
2023-01-10T04:44:27.304Z,-11.76
2023-01-10T04:47:01.015Z,-11.76
2023-01-10T04:49:38.116Z,-11.76
2023-01-10T04:52:12.966Z,-11.75
2023-01-10T04:54:46.820Z,-11.75
2023-01-10T04:57:21.934Z,-11.74
2023-01-10T04:59:55.777Z,-11.75
2023-01-10T05:02:28.600Z,-11.76
2023-01-10T05:05:02.984Z,-11.77
2023-01-10T05:07:37.169Z,-11.77
2023-01-10T05:10:12.727Z,-11.79
2023-01-10T05:12:47.652Z,-11.79
2023-01-10T05:15:23.478Z,-11.80
2023-01-10T05:18:03.189Z,-11.82
2023-01-10T05:20:37.182Z,-11.84
2023-01-10T05:23:12.024Z,-11.83
2023-01-10T05:25:46.016Z,-11.83
2023-01-10T05:28:20.619Z,-11.82
2023-01-10T05:30:54.977Z,-11.80
2023-01-10T05:33:29.494Z,-11.79
2023-01-10T05:36:08.639Z,-11.79
2023-01-10T05:38:43.142Z,-11.78
2023-01-10T05:41:17.092Z,-11.77
2023-01-10T05:43:51.399Z,-11.74
2023-01-10T05:46:25.295Z,-11.71
2023-01-10T05:48:59.257Z,-11.70
2023-01-10T05:51:32.929Z,-11.68
2023-01-10T05:54:05.788Z,-11.65
2023-01-10T05:56:39.554Z,-11.61
2023-01-10T05:59:27.292Z,-11.57
2023-01-10T06:01:48.861Z,-11.53
2023-01-10T06:04:22.830Z,-11.49
2023-01-10T06:06:56.968Z,-11.48
2023-01-10T06:09:31.389Z,-11.45
2023-01-10T06:12:05.503Z,-11.44
2023-01-10T06:14:40.670Z,-11.43
2023-01-10T06:17:15.027Z,-11.42
2023-01-10T06:19:49.147Z,-11.40
2023-01-10T06:22:42.637Z,-11.36
2023-01-10T06:25:17.153Z,-11.34
2023-01-10T06:27:51.068Z,-11.35
2023-01-10T06:30:25.891Z,-11.35
2023-01-10T06:33:04.594Z,-11.34
2023-01-10T06:35:38.691Z,-11.33
2023-01-10T06:38:12.359Z,-11.29
2023-01-10T06:40:46.505Z,-11.25
2023-01-10T06:43:22.175Z,-11.24
2023-01-10T06:45:55.976Z,-11.21
2023-01-10T06:48:30.620Z,-11.17
2023-01-10T06:51:05.678Z,-11.13
2023-01-10T06:53:40.420Z,-11.08
2023-01-10T06:56:15.069Z,-11.04
2023-01-10T06:58:50.932Z,-11.01
2023-01-10T07:01:25.336Z,-10.96
2023-01-10T07:03:59.661Z,-10.93
2023-01-10T07:06:36.292Z,-10.88
2023-01-10T07:09:10.934Z,-10.86
2023-01-10T07:11:44.522Z,-10.82
2023-01-10T07:14:18.302Z,-10.74
2023-01-10T07:16:52.061Z,-10.71
2023-01-10T07:19:25.045Z,-10.68
2023-01-10T07:21:58.698Z,-10.65
2023-01-10T07:24:31.600Z,-10.61
2023-01-10T07:27:05.441Z,-10.55
2023-01-10T07:29:39.507Z,-10.48
2023-01-10T07:32:13.746Z,-10.43
2023-01-10T07:34:47.823Z,-10.35
2023-01-10T07:37:21.557Z,-10.35
2023-01-10T07:39:55.284Z,-10.30
2023-01-10T07:42:29.075Z,-10.25
2023-01-10T07:45:02.915Z,-10.21
2023-01-10T07:47:36.751Z,-10.13
2023-01-10T07:50:10.829Z,-10.04
2023-01-10T07:52:44.860Z,-9.99
2023-01-10T07:55:18.746Z,-9.95
2023-01-10T07:57:53.371Z,-9.94
2023-01-10T08:00:27.280Z,-9.93
2023-01-10T08:03:01.482Z,-9.88
2023-01-10T08:05:37.582Z,-9.84
2023-01-10T08:08:14.399Z,-9.78
2023-01-10T08:10:48.151Z,-9.71
2023-01-10T08:13:22.121Z,-9.66
2023-01-10T08:15:55.999Z,-9.61
2023-01-10T08:18:30.535Z,-9.57
2023-01-10T08:21:04.333Z,-9.48
2023-01-10T08:23:38.305Z,-9.48
2023-01-10T08:26:12.135Z,-9.44
2023-01-10T08:28:45.945Z,-9.36
2023-01-10T08:31:19.731Z,-9.32
2023-01-10T08:33:53.682Z,-9.30
2023-01-10T08:36:30.278Z,-9.28
2023-01-10T08:39:04.350Z,-9.26
2023-01-10T08:41:38.873Z,-9.23
2023-01-10T08:44:13.643Z,-9.18
2023-01-10T08:46:47.295Z,-9.12
2023-01-10T08:49:20.938Z,-9.05
2023-01-10T08:51:54.941Z,-8.98
2023-01-10T08:54:28.999Z,-8.92
2023-01-10T08:57:02.750Z,-8.85
2023-01-10T08:59:37.009Z,-8.76
2023-01-10T09:02:17.061Z,-8.69
2023-01-10T09:04:52.483Z,-8.67
2023-01-10T09:07:30.535Z,-8.64
2023-01-10T09:10:08.016Z,-8.60
2023-01-10T09:12:49.985Z,-8.52
2023-01-10T09:15:41.477Z,-8.45
2023-01-10T09:18:16.529Z,-8.39
2023-01-10T09:24:23.194Z,-8.21
2023-01-10T09:27:00.669Z,-8.22
2023-01-10T09:29:37.431Z,-8.20
2023-01-10T09:32:14.803Z,-8.20
2023-01-10T09:34:52.287Z,-8.25
2023-01-10T09:37:43.764Z,-8.36
2023-01-10T09:40:23.213Z,-8.42
2023-01-10T09:43:11.447Z,-8.49
2023-01-10T09:46:10.253Z,-8.53
2023-01-10T09:52:34.321Z,-8.46
2023-01-10T09:55:21.132Z,-8.47
2023-01-10T10:01:27.154Z,-8.42
2023-01-10T10:04:23.441Z,-8.42
2023-01-10T10:07:02.183Z,-8.46
2023-01-10T10:09:37.532Z,-8.44
2023-01-10T10:12:52.175Z,-8.39
2023-01-10T10:16:04.689Z,-8.30
2023-01-10T10:18:55.281Z,-8.25
2023-01-10T10:22:07.817Z,-8.27
2023-01-10T10:25:32.165Z,-8.26
2023-01-10T10:28:37.322Z,-8.28
2023-01-10T10:31:54.753Z,-8.33
2023-01-10T10:34:55.901Z,-8.40
2023-01-10T10:37:37.725Z,-8.50
2023-01-10T10:40:29.235Z,-8.54
2023-01-10T10:43:09.127Z,-8.53
2023-01-10T10:45:52.469Z,-8.54
2023-01-10T10:48:36.171Z,-8.60
2023-01-10T10:51:38.975Z,-8.63
2023-01-10T10:54:15.838Z,-8.66
2023-01-10T10:56:54.425Z,-8.69
2023-01-10T10:59:31.998Z,-8.75
2023-01-10T11:02:29.861Z,-8.78
2023-01-10T11:05:14.080Z,-8.81
2023-01-10T11:07:48.541Z,-8.85
2023-01-10T11:10:41.630Z,-8.88
2023-01-10T11:13:38.957Z,-8.89
2023-01-10T11:16:27.223Z,-8.87
2023-01-10T11:19:27.223Z,-8.89
2023-01-10T11:22:07.192Z,-8.88
2023-01-10T11:24:46.266Z,-8.91
2023-01-10T11:27:40.122Z,-8.94
2023-01-10T11:30:33.654Z,-8.95
2023-01-10T11:47:30.005Z,-8.93
2023-01-10T11:50:04.264Z,-8.84
2023-01-10T11:52:37.840Z,-8.79
2023-01-10T11:55:11.279Z,-8.74
2023-01-10T11:57:44.453Z,-8.66
2023-01-10T12:00:19.159Z,-8.61
2023-01-10T12:02:52.997Z,-8.58
2023-01-10T12:05:25.199Z,-8.52
2023-01-10T12:08:07.025Z,-8.48
2023-01-10T12:10:40.696Z,-8.46
2023-01-10T12:13:18.180Z,-8.44
2023-01-10T12:15:51.414Z,-8.42
2023-01-10T12:18:25.156Z,-8.46
2023-01-10T12:20:58.118Z,-8.53
2023-01-10T12:23:31.694Z,-8.56
2023-01-10T12:26:11.781Z,-8.58
2023-01-10T12:28:52.263Z,-8.58
2023-01-10T12:31:25.618Z,-8.59
2023-01-10T12:34:15.166Z,-8.60
2023-01-10T12:37:27.552Z,-8.61
2023-01-10T12:40:08.219Z,-8.63
2023-01-10T12:43:12.484Z,-8.64
2023-01-10T12:45:59.609Z,-8.60
2023-01-10T12:48:59.878Z,-8.64
2023-01-10T12:51:33.344Z,-8.67
2023-01-10T12:54:10.280Z,-8.72
2023-01-10T12:56:44.112Z,-8.74
2023-01-10T12:59:41.307Z,-8.77
2023-01-10T13:02:24.204Z,-8.80
2023-01-10T13:05:00.313Z,-8.84
2023-01-10T13:07:35.737Z,-8.93
2023-01-10T13:10:10.858Z,-9.02
2023-01-10T13:12:48.797Z,-9.10
2023-01-10T13:15:42.198Z,-9.13
2023-01-10T13:18:21.479Z,-9.18
2023-01-10T13:21:09.156Z,-9.23
2023-01-10T13:23:52.824Z,-9.31
2023-01-10T13:26:26.849Z,-9.38
2023-01-10T13:29:04.069Z,-9.47
2023-01-10T13:31:38.284Z,-9.55
2023-01-10T13:34:17.081Z,-9.62
2023-01-10T13:36:56.681Z,-9.70
2023-01-10T13:39:34.081Z,-9.79
2023-01-10T13:42:30.039Z,-9.86
2023-01-10T13:45:10.071Z,-9.93
2023-01-10T13:47:48.819Z,-10.00
2023-01-10T13:50:31.857Z,-10.07
2023-01-10T13:53:15.010Z,-10.11
2023-01-10T13:55:57.742Z,-10.17
2023-01-10T13:59:00.459Z,-10.22
2023-01-10T14:01:59.043Z,-10.28
2023-01-10T14:04:52.267Z,-10.31
2023-01-10T14:07:29.772Z,-10.40
2023-01-10T14:10:10.895Z,-10.46
2023-01-10T14:13:04.383Z,-10.49
2023-01-10T14:15:46.051Z,-10.54
2023-01-10T14:18:33.907Z,-10.61
2023-01-10T14:21:10.563Z,-10.68
2023-01-10T14:23:47.810Z,-10.70
2023-01-10T14:26:35.764Z,-10.73
2023-01-10T14:29:14.130Z,-10.74
2023-01-10T14:31:50.400Z,-10.79
2023-01-10T14:34:35.836Z,-10.85
2023-01-10T14:37:19.865Z,-10.89
2023-01-10T14:39:55.624Z,-10.92
2023-01-10T14:42:30.552Z,-10.94
2023-01-10T14:45:11.961Z,-10.94
2023-01-10T14:47:48.457Z,-10.98
2023-01-10T14:50:30.013Z,-11.00
2023-01-10T14:53:03.830Z,-11.01
2023-01-10T14:55:43.012Z,-11.04
2023-01-10T14:58:19.068Z,-11.06
2023-01-10T15:00:56.462Z,-11.10
2023-01-10T15:03:30.514Z,-11.12
2023-01-10T15:06:04.126Z,-11.14
2023-01-10T15:08:37.147Z,-11.16
2023-01-10T15:11:12.959Z,-11.19
2023-01-10T15:13:57.428Z,-11.22
2023-01-10T15:16:32.312Z,-11.26
2023-01-10T15:19:06.921Z,-11.32
2023-01-10T15:21:46.841Z,-11.35
2023-01-10T15:24:36.222Z,-11.38
2023-01-10T15:27:15.845Z,-11.40
2023-01-10T15:29:49.688Z,-11.45
2023-01-10T15:32:30.227Z,-11.49
2023-01-10T15:35:04.663Z,-11.51
2023-01-10T15:37:42.017Z,-11.52
2023-01-10T15:40:25.670Z,-11.57
2023-01-10T15:43:25.788Z,-11.56
2023-01-10T15:46:01.473Z,-11.58
2023-01-10T15:48:44.554Z,-11.61
2023-01-10T15:51:26.222Z,-11.65
2023-01-10T15:54:25.333Z,-11.65
2023-01-10T15:57:04.760Z,-11.69
2023-01-10T15:59:45.117Z,-11.74
2023-01-10T16:02:25.405Z,-11.76
2023-01-10T16:05:12.582Z,-11.79
2023-01-10T16:07:48.102Z,-11.82
2023-01-10T16:10:27.723Z,-11.84
2023-01-10T16:13:27.896Z,-11.85
2023-01-10T16:16:05.393Z,-11.84
2023-01-10T16:18:39.269Z,-11.84
2023-01-10T16:21:13.836Z,-11.86
2023-01-10T16:23:47.458Z,-11.89
2023-01-10T16:26:22.513Z,-11.91
2023-01-10T16:28:56.823Z,-11.96
2023-01-10T16:31:30.603Z,-11.97
2023-01-10T16:34:04.407Z,-12.01
2023-01-10T16:36:38.898Z,-12.06
2023-01-10T16:39:21.592Z,-12.11
2023-01-10T16:42:13.491Z,-12.13
2023-01-10T16:44:47.292Z,-12.17
2023-01-10T16:47:20.988Z,-12.20
2023-01-10T16:49:54.657Z,-12.22
2023-01-10T16:52:28.349Z,-12.22
2023-01-10T16:55:03.404Z,-12.24
2023-01-10T16:57:37.257Z,-12.28
2023-01-10T17:00:12.458Z,-12.31
2023-01-10T17:02:46.298Z,-12.31
2023-01-10T17:05:20.250Z,-12.30
2023-01-10T17:07:54.489Z,-12.28
2023-01-10T17:10:28.598Z,-12.28
2023-01-10T17:13:04.626Z,-12.30
2023-01-10T17:15:39.859Z,-12.31
2023-01-10T17:18:13.779Z,-12.31
2023-01-10T17:20:47.657Z,-12.32
2023-01-10T17:23:21.433Z,-12.33
2023-01-10T17:26:04.254Z,-12.34
2023-01-10T17:28:39.115Z,-12.35
2023-01-10T17:31:12.878Z,-12.38
2023-01-10T17:33:46.772Z,-12.37
2023-01-10T17:36:22.817Z,-12.35
2023-01-10T17:38:59.778Z,-12.35
2023-01-10T17:41:33.951Z,-12.38
2023-01-10T17:44:07.951Z,-12.39
2023-01-10T17:46:42.132Z,-12.41
2023-01-10T17:49:15.819Z,-12.45
2023-01-10T17:51:49.704Z,-12.51
2023-01-10T17:54:24.140Z,-12.56
2023-01-10T17:56:58.052Z,-12.60
2023-01-10T17:59:31.981Z,-12.64
2023-01-10T18:02:06.226Z,-12.64
2023-01-10T18:04:40.673Z,-12.65
2023-01-10T18:07:15.027Z,-12.65
2023-01-10T18:09:48.977Z,-12.66
2023-01-10T18:12:22.889Z,-12.65
2023-01-10T18:14:56.997Z,-12.66
2023-01-10T18:17:31.065Z,-12.69
2023-01-10T18:20:05.227Z,-12.70
2023-01-10T18:22:58.791Z,-12.71
2023-01-10T18:25:32.581Z,-12.73
2023-01-10T18:28:06.496Z,-12.76
2023-01-10T18:30:41.290Z,-12.76
2023-01-10T18:33:14.168Z,-12.76
2023-01-10T18:35:49.123Z,-12.75
2023-01-10T18:38:23.079Z,-12.78
2023-01-10T18:40:56.820Z,-12.80
2023-01-10T18:43:31.720Z,-12.80
2023-01-10T18:46:10.699Z,-12.81
2023-01-10T18:48:45.342Z,-12.81
2023-01-10T18:51:19.409Z,-12.82
2023-01-10T18:53:54.263Z,-12.85
2023-01-10T18:56:28.236Z,-12.87
2023-01-10T18:59:02.262Z,-12.88
2023-01-10T19:01:37.141Z,-12.88
2023-01-10T19:04:11.826Z,-12.89
2023-01-10T19:06:45.692Z,-12.91
2023-01-10T19:09:20.198Z,-12.91
2023-01-10T19:11:54.000Z,-12.92
2023-01-10T19:14:28.319Z,-12.92
2023-01-10T19:17:02.324Z,-12.92
2023-01-10T19:19:36.785Z,-12.94
2023-01-10T19:22:10.526Z,-12.94
2023-01-10T19:24:44.350Z,-12.95
2023-01-10T19:27:18.774Z,-12.97
2023-01-10T19:29:52.902Z,-12.98
2023-01-10T19:32:27.666Z,-12.98
2023-01-10T19:35:01.681Z,-12.96
2023-01-10T19:37:35.711Z,-12.96
2023-01-10T19:40:12.574Z,-12.96
2023-01-10T19:42:46.524Z,-12.96
2023-01-10T19:45:20.430Z,-12.97
2023-01-10T19:47:54.438Z,-12.97
2023-01-10T19:50:28.232Z,-12.97
2023-01-10T19:53:02.161Z,-12.98
2023-01-10T19:55:36.088Z,-13.00
2023-01-10T19:58:09.884Z,-13.00
2023-01-10T20:00:43.543Z,-13.01
2023-01-10T20:03:17.552Z,-13.00
2023-01-10T20:05:51.357Z,-13.00
2023-01-10T20:08:25.118Z,-13.00
2023-01-10T20:11:05.498Z,-13.02
2023-01-10T20:13:43.934Z,-13.02
2023-01-10T20:16:24.158Z,-13.01
2023-01-10T20:18:57.998Z,-13.01
2023-01-10T20:21:31.699Z,-13.02
2023-01-10T20:24:17.616Z,-13.01
2023-01-10T20:26:52.380Z,-13.04
2023-01-10T20:29:26.273Z,-13.02
2023-01-10T20:32:01.425Z,-13.02
2023-01-10T20:34:35.733Z,-13.00
2023-01-10T20:37:10.341Z,-12.99
2023-01-10T20:39:44.599Z,-12.99
2023-01-10T20:42:18.494Z,-12.96
2023-01-10T20:44:52.621Z,-12.96
2023-01-10T20:47:27.182Z,-12.93
2023-01-10T20:50:00.938Z,-12.95
2023-01-10T20:52:35.024Z,-12.95
2023-01-10T20:55:08.174Z,-12.95
2023-01-10T20:57:41.908Z,-12.95
2023-01-10T21:00:18.126Z,-12.94
2023-01-10T21:02:51.988Z,-12.95
2023-01-10T21:05:25.891Z,-12.95
2023-01-10T21:07:59.814Z,-12.95
2023-01-10T21:10:34.097Z,-12.93
2023-01-10T21:13:08.512Z,-12.93
2023-01-10T21:15:44.418Z,-12.92
2023-01-10T21:18:22.288Z,-12.92
2023-01-10T21:20:58.017Z,-12.91
2023-01-10T21:23:33.274Z,-12.92
2023-01-10T21:26:11.333Z,-12.89
2023-01-10T21:28:47.637Z,-12.91
2023-01-10T21:31:23.492Z,-12.92
2023-01-10T21:33:57.278Z,-12.94
2023-01-10T21:36:31.287Z,-12.95
2023-01-10T21:39:04.979Z,-12.95
2023-01-10T21:41:56.928Z,-12.96
2023-01-10T21:44:30.560Z,-12.95
2023-01-10T21:47:04.494Z,-12.93
2023-01-10T21:49:39.006Z,-12.93
2023-01-10T21:52:12.859Z,-12.92
2023-01-10T21:54:46.752Z,-12.90
2023-01-10T21:57:22.579Z,-12.92
2023-01-10T21:59:56.697Z,-12.94
2023-01-10T22:02:31.227Z,-12.95
2023-01-10T22:05:05.058Z,-12.94
2023-01-10T22:07:39.145Z,-12.94
2023-01-10T22:10:13.808Z,-12.93
2023-01-10T22:12:47.588Z,-12.90
2023-01-10T22:15:21.819Z,-12.89
2023-01-10T22:17:55.596Z,-12.88
2023-01-10T22:20:29.660Z,-12.87
2023-01-10T22:23:03.476Z,-12.86
2023-01-10T22:25:37.275Z,-12.85
2023-01-10T22:28:09.932Z,-12.84
2023-01-10T22:30:43.804Z,-12.80
2023-01-10T22:33:17.499Z,-12.79
2023-01-10T22:35:52.051Z,-12.77
2023-01-10T22:38:26.217Z,-12.78
2023-01-10T22:41:08.956Z,-12.78
2023-01-10T22:43:42.843Z,-12.80
2023-01-10T22:46:17.391Z,-12.79
2023-01-10T22:48:51.102Z,-12.79
2023-01-10T22:51:26.275Z,-12.75
2023-01-10T22:53:59.941Z,-12.74
2023-01-10T22:56:34.091Z,-12.74
2023-01-10T22:59:08.538Z,-12.76
2023-01-10T23:01:42.656Z,-12.77
2023-01-10T23:04:18.245Z,-12.80
2023-01-10T23:06:52.647Z,-12.81
2023-01-10T23:09:26.640Z,-12.85
2023-01-10T23:12:00.532Z,-12.86
2023-01-10T23:14:34.282Z,-12.87
2023-01-10T23:17:08.510Z,-12.88
2023-01-10T23:19:42.284Z,-12.89
2023-01-10T23:22:14.979Z,-12.90
2023-01-10T23:24:48.488Z,-12.89
2023-01-10T23:27:21.387Z,-12.92
2023-01-10T23:29:54.866Z,-12.93
2023-01-10T23:32:29.729Z,-12.93
2023-01-10T23:35:03.873Z,-12.94
2023-01-10T23:37:37.660Z,-12.93
2023-01-10T23:40:13.943Z,-12.92
2023-01-10T23:42:47.719Z,-12.91
2023-01-10T23:45:20.443Z,-12.90
2023-01-10T23:47:54.601Z,-12.92
2023-01-10T23:50:28.591Z,-12.92
2023-01-10T23:53:01.658Z,-12.91
2023-01-10T23:55:36.131Z,-12.91
2023-01-10T23:58:09.860Z,-12.90
